Time;durP1;ratioP1;P1;durP2;ratioP2;P2;SDS_P1;SDS_P2;PMS_P1;PMS_P2;Temp;Humidity;BMP_temperature;BMP_pressure;BME280_temperature;BME280_humidity;BME280_pressure;Samples;Min_cycle;Max_cycle;Signal;HPM_P1;HPM_P2
2023/03/16 00:01:45;;;;;;;;;;;25.20;76.60;;;;;;5092385;28;20006;-69
2023/03/16 00:04:12;;;;;;;;;;;25.20;76.40;;;;;;5090048;28;19912;-68
2023/03/16 00:06:39;;;;;;;;;;;25.20;75.60;;;;;;5091979;28;19908;-69
2023/03/16 00:09:06;;;;;;;;;;;25.30;75.10;;;;;;5092182;28;19977;-69
2023/03/16 00:11:32;;;;;;;;;;;25.30;75.00;;;;;;5092025;28;19999;-69
2023/03/16 00:14:03;;;;;;;;;;;25.40;74.10;;;;;;5091998;28;19909;-69
2023/03/16 00:16:30;;;;;;;;;;;25.40;73.70;;;;;;5091670;28;20251;-69
2023/03/16 00:18:58;;;;;;;;;;;25.50;73.50;;;;;;5092202;28;19916;-69
2023/03/16 00:21:24;;;;;;;;;;;25.60;73.10;;;;;;5092028;28;19913;-69
2023/03/16 00:23:52;;;;;;;;;;;25.60;73.00;;;;;;5090177;28;19908;-69
2023/03/16 00:26:18;;;;;;;;;;;25.70;73.00;;;;;;5090850;28;19986;-69
2023/03/16 00:28:45;;;;;;;;;;;25.70;72.60;;;;;;5092162;28;19912;-69
2023/03/16 00:31:12;;;;;;;;;;;25.80;71.90;;;;;;5091718;28;19994;-68
2023/03/16 00:33:41;;;;;;;;;;;25.80;71.30;;;;;;5091978;28;20301;-68
2023/03/16 00:36:10;;;;;;;;;;;25.90;70.80;;;;;;5091752;28;19916;-68
2023/03/16 00:38:43;;;;;;;;;;;26.00;70.10;;;;;;5091668;28;19908;-68
2023/03/16 00:41:13;;;;;;;;;;;26.10;68.70;;;;;;5091619;28;19908;-68
2023/03/16 00:43:39;;;;;;;;;;;26.20;68.00;;;;;;5090549;28;20006;-68
2023/03/16 00:46:10;;;;;;;;;;;26.30;66.70;;;;;;5090236;28;20320;-68
2023/03/16 00:48:37;;;;;;;;;;;26.30;65.70;;;;;;5091929;28;19912;-68
2023/03/16 00:51:05;;;;;;;;;;;26.30;65.50;;;;;;5091791;28;20281;-68
2023/03/16 00:53:32;;;;;;;;;;;26.40;65.20;;;;;;5091728;28;19916;-68
2023/03/16 00:56:03;;;;;;;;;;;26.50;64.10;;;;;;5091185;28;19916;-68
2023/03/16 00:58:34;;;;;;;;;;;26.60;63.10;;;;;;5091681;28;19908;-68
2023/03/16 01:01:01;;;;;;;;;;;26.70;61.70;;;;;;5091750;28;20313;-68
2023/03/16 01:03:28;;;;;;;;;;;26.70;61.00;;;;;;5095557;28;19943;-69
2023/03/16 01:05:58;;;;;;;;;;;26.70;60.20;;;;;;5095132;28;19908;-69
2023/03/16 01:08:28;;;;;;;;;;;26.80;60.20;;;;;;5095306;28;19919;-68
2023/03/16 01:10:55;;;;;;;;;;;26.90;60.70;;;;;;5094776;28;19908;-68
2023/03/16 01:13:22;;;;;;;;;;;27.00;60.70;;;;;;5091805;28;19918;-68
2023/03/16 01:15:52;;;;;;;;;;;27.10;59.80;;;;;;5088526;28;19924;-69
2023/03/16 01:18:19;;;;;;;;;;;27.10;59.30;;;;;;5081513;28;19915;-68
2023/03/16 01:20:49;;;;;;;;;;;27.10;58.90;;;;;;5094967;28;20278;-69
2023/03/16 01:23:16;;;;;;;;;;;27.10;59.20;;;;;;5094726;28;20469;-69
2023/03/16 01:25:51;;;;;;;;;;;27.20;58.80;;;;;;5094879;28;20274;-69
2023/03/16 01:28:19;;;;;;;;;;;27.20;58.10;;;;;;5094917;28;20362;-69
2023/03/16 01:30:46;;;;;;;;;;;27.30;57.80;;;;;;5094923;28;19908;-69
2023/03/16 01:33:12;;;;;;;;;;;27.30;57.50;;;;;;5076761;28;19912;-69
2023/03/16 01:35:40;;;;;;;;;;;27.30;57.70;;;;;;5094535;28;19920;-69
2023/03/16 01:38:06;;;;;;;;;;;27.30;56.60;;;;;;5094542;28;19915;-69
2023/03/16 01:40:33;;;;;;;;;;;27.40;56.10;;;;;;5094578;28;19920;-68
2023/03/16 01:43:01;;;;;;;;;;;27.40;56.10;;;;;;5089259;28;20032;-69
2023/03/16 01:45:45;;;;;;;;;;;27.40;56.80;;;;;;5090307;28;19920;-69
2023/03/16 01:48:13;;;;;;;;;;;27.40;56.50;;;;;;5094381;28;20374;-69
2023/03/16 01:50:41;;;;;;;;;;;27.60;56.90;;;;;;5076592;28;19923;-68
2023/03/16 01:53:08;;;;;;;;;;;27.70;57.20;;;;;;5094477;28;19908;-69
2023/03/16 01:55:35;;;;;;;;;;;27.70;56.10;;;;;;5094145;28;19909;-69
2023/03/16 01:58:01;;;;;;;;;;;27.70;55.30;;;;;;5094318;28;19938;-69
2023/03/16 02:00:31;;;;;;;;;;;27.80;55.40;;;;;;5094093;28;20016;-69
2023/03/16 02:03:00;;;;;;;;;;;27.90;54.30;;;;;;5094455;28;19915;-69
2023/03/16 02:05:44;;;;;;;;;;;27.90;53.50;;;;;;5076155;28;19991;-69
2023/03/16 02:08:11;;;;;;;;;;;28.00;54.10;;;;;;5080626;28;19919;-69
2023/03/16 02:10:37;;;;;;;;;;;28.10;54.50;;;;;;5094312;28;19912;-68
2023/03/16 02:13:04;;;;;;;;;;;28.10;53.10;;;;;;5090885;28;19987;-69
2023/03/16 02:15:31;;;;;;;;;;;28.10;52.90;;;;;;5093834;28;20395;-69
2023/03/16 02:17:59;;;;;;;;;;;28.20;52.20;;;;;;5094076;28;20289;-69
2023/03/16 02:20:48;;;;;;;;;;;28.20;50.80;;;;;;5075906;28;19919;-69
2023/03/16 02:23:18;;;;;;;;;;;28.20;51.10;;;;;;5093235;28;19973;-69
2023/03/16 02:26:05;;;;;;;;;;;28.30;51.40;;;;;;5076195;28;19947;-69
2023/03/16 02:28:51;;;;;;;;;;;28.30;50.80;;;;;;5093564;28;19919;-69
2023/03/16 02:31:18;;;;;;;;;;;28.30;49.90;;;;;;5043398;28;19924;-69
2023/03/16 02:33:45;;;;;;;;;;;28.40;50.40;;;;;;5075642;28;20290;-69
2023/03/16 02:36:12;;;;;;;;;;;28.50;51.50;;;;;;5075235;28;19930;-69
2023/03/16 02:38:40;;;;;;;;;;;28.50;50.00;;;;;;5075257;28;19920;-69
2023/03/16 02:41:11;;;;;;;;;;;28.50;49.80;;;;;;5093426;28;20356;-69
2023/03/16 02:43:37;;;;;;;;;;;28.50;48.30;;;;;;5062186;28;20286;-69
2023/03/16 02:46:04;;;;;;;;;;;28.50;46.90;;;;;;5074944;28;19908;-69
2023/03/16 02:48:37;;;;;;;;;;;28.50;46.80;;;;;;5093233;28;19908;-69
2023/03/16 02:51:04;;;;;;;;;;;28.60;46.10;;;;;;5093129;28;20412;-69
2023/03/16 02:53:30;;;;;;;;;;;28.70;46.40;;;;;;5075189;28;19909;-69
2023/03/16 02:55:57;;;;;;;;;;;28.80;47.10;;;;;;5092982;28;19916;-69
2023/03/16 02:58:24;;;;;;;;;;;28.80;46.20;;;;;;5093130;28;19934;-69
2023/03/16 03:00:50;;;;;;;;;;;28.80;46.00;;;;;;5093228;28;19919;-69
2023/03/16 03:03:17;;;;;;;;;;;28.80;45.20;;;;;;5093232;28;19912;-69
2023/03/16 03:05:44;;;;;;;;;;;28.80;44.80;;;;;;5075061;28;19912;-69
2023/03/16 03:08:11;;;;;;;;;;;28.90;44.70;;;;;;5074978;28;20323;-69
2023/03/16 03:10:38;;;;;;;;;;;28.90;44.80;;;;;;5075126;28;19952;-69
2023/03/16 03:13:06;;;;;;;;;;;29.00;45.90;;;;;;5087187;28;19913;-69
2023/03/16 03:15:33;;;;;;;;;;;29.00;46.60;;;;;;5092652;28;19920;-69
2023/03/16 03:18:00;;;;;;;;;;;29.00;45.70;;;;;;5074871;28;20294;-70
2023/03/16 03:20:26;;;;;;;;;;;29.00;45.20;;;;;;5075066;28;20290;-69
2023/03/16 03:22:53;;;;;;;;;;;29.00;45.80;;;;;;5074795;28;19915;-69
2023/03/16 03:25:20;;;;;;;;;;;29.00;45.20;;;;;;5092607;28;20352;-69
2023/03/16 03:27:47;;;;;;;;;;;29.20;45.90;;;;;;5054667;28;19909;-69
2023/03/16 03:30:16;;;;;;;;;;;29.20;46.70;;;;;;5093117;28;19912;-69
2023/03/16 03:32:43;;;;;;;;;;;29.20;46.00;;;;;;5074534;28;20346;-69
2023/03/16 03:35:11;;;;;;;;;;;29.30;45.00;;;;;;5074419;28;19950;-69
2023/03/16 03:37:39;;;;;;;;;;;29.30;44.70;;;;;;5074733;28;20381;-68
2023/03/16 03:40:06;;;;;;;;;;;29.30;44.70;;;;;;5074689;28;19915;-69
2023/03/16 03:42:33;;;;;;;;;;;29.30;44.90;;;;;;5067698;28;19913;-69
2023/03/16 03:45:00;;;;;;;;;;;29.30;44.90;;;;;;5084409;28;19954;-69
2023/03/16 03:47:26;;;;;;;;;;;29.40;45.40;;;;;;5092333;28;19977;-69
2023/03/16 03:49:53;;;;;;;;;;;29.50;45.40;;;;;;5092291;28;19953;-69
2023/03/16 03:52:20;;;;;;;;;;;29.50;46.50;;;;;;5092261;28;19961;-68
2023/03/16 03:54:47;;;;;;;;;;;29.50;47.10;;;;;;5092460;28;20476;-68
2023/03/16 03:57:13;;;;;;;;;;;29.50;45.80;;;;;;5091963;28;19973;-68
2023/03/16 03:59:43;;;;;;;;;;;29.50;45.10;;;;;;5092123;28;20419;-68
2023/03/16 04:02:10;;;;;;;;;;;29.50;45.20;;;;;;5074681;28;19908;-68
2023/03/16 04:04:37;;;;;;;;;;;29.50;45.20;;;;;;5089675;28;20042;-68
2023/03/16 04:07:04;;;;;;;;;;;29.50;45.00;;;;;;5074422;28;19912;-68
2023/03/16 04:09:33;;;;;;;;;;;29.50;44.60;;;;;;5092113;28;19915;-67
2023/03/16 04:12:00;;;;;;;;;;;29.50;44.90;;;;;;5092129;28;19924;-67
2023/03/16 04:14:28;;;;;;;;;;;29.50;45.00;;;;;;5091532;28;20424;-68
2023/03/16 04:16:54;;;;;;;;;;;29.60;44.60;;;;;;5091940;28;19920;-68
2023/03/16 04:19:22;;;;;;;;;;;29.50;43.90;;;;;;5073931;28;19908;-69
2023/03/16 04:21:48;;;;;;;;;;;29.60;44.10;;;;;;5092063;28;19915;-68
2023/03/16 04:24:15;;;;;;;;;;;29.70;44.30;;;;;;5092020;28;19935;-68
2023/03/16 04:26:45;;;;;;;;;;;29.70;43.90;;;;;;5091889;28;19912;-68
2023/03/16 04:29:13;;;;;;;;;;;29.80;42.70;;;;;;5074271;28;19912;-68
2023/03/16 04:31:41;;;;;;;;;;;29.80;43.00;;;;;;5073665;28;19914;-68
2023/03/16 04:34:07;;;;;;;;;;;29.90;42.70;;;;;;5090625;28;19919;-67
2023/03/16 04:36:34;;;;;;;;;;;29.90;42.30;;;;;;5092297;28;19916;-68
2023/03/16 04:39:01;;;;;;;;;;;29.90;42.00;;;;;;5077669;28;19919;-67
2023/03/16 04:41:28;;;;;;;;;;;29.90;42.30;;;;;;5077630;28;19966;-68
2023/03/16 04:43:56;;;;;;;;;;;29.90;41.30;;;;;;5095496;28;19919;-68
2023/03/16 04:46:23;;;;;;;;;;;30.00;42.00;;;;;;5095839;28;19934;-67
2023/03/16 04:48:50;;;;;;;;;;;29.90;42.30;;;;;;5077406;28;20400;-68
2023/03/16 04:51:16;;;;;;;;;;;29.90;42.00;;;;;;5095952;28;20042;-67
2023/03/16 04:53:43;;;;;;;;;;;29.90;41.90;;;;;;5095598;28;19912;-68
2023/03/16 04:56:18;;;;;;;;;;;29.90;42.80;;;;;;5095266;28;19998;-69
2023/03/16 04:58:45;;;;;;;;;;;30.00;42.70;;;;;;5095180;28;19915;-69
2023/03/16 05:01:12;;;;;;;;;;;30.00;42.40;;;;;;5056915;28;20305;-69
2023/03/16 05:03:39;;;;;;;;;;;30.10;42.00;;;;;;5085293;28;19912;-68
2023/03/16 05:06:05;;;;;;;;;;;30.10;43.00;;;;;;5095252;28;20015;-68
2023/03/16 05:08:32;;;;;;;;;;;30.10;44.00;;;;;;5095475;28;19908;-68
2023/03/16 05:10:59;;;;;;;;;;;30.20;44.00;;;;;;5076935;28;19908;-68
2023/03/16 05:13:26;;;;;;;;;;;30.20;41.20;;;;;;5095105;28;19951;-68
2023/03/16 05:15:55;;;;;;;;;;;30.20;40.90;;;;;;5094803;28;20006;-68
2023/03/16 05:18:22;;;;;;;;;;;30.30;39.90;;;;;;5095464;28;19920;-68
2023/03/16 05:20:52;;;;;;;;;;;30.30;39.20;;;;;;5095158;28;19912;-68
2023/03/16 05:23:19;;;;;;;;;;;30.30;38.00;;;;;;5077149;28;19912;-68
2023/03/16 05:25:46;;;;;;;;;;;30.30;37.90;;;;;;5076964;28;19915;-68
2023/03/16 05:28:13;;;;;;;;;;;30.40;37.30;;;;;;5076852;28;19954;-69
2023/03/16 05:30:41;;;;;;;;;;;30.50;36.90;;;;;;5094816;28;19908;-68
2023/03/16 05:33:08;;;;;;;;;;;30.40;35.90;;;;;;5075002;28;19912;-68
2023/03/16 05:35:34;;;;;;;;;;;30.30;34.20;;;;;;5094514;28;19934;-68
2023/03/16 05:38:01;;;;;;;;;;;30.30;34.30;;;;;;5076836;28;19908;-68
2023/03/16 05:40:28;;;;;;;;;;;30.30;34.40;;;;;;5076601;28;19970;-68
2023/03/16 05:42:55;;;;;;;;;;;30.30;33.80;;;;;;5094683;28;19995;-68
2023/03/16 05:45:22;;;;;;;;;;;30.30;33.80;;;;;;5076736;28;19972;-68
2023/03/16 05:47:49;;;;;;;;;;;30.30;33.90;;;;;;5075928;28;19937;-68
2023/03/16 05:50:16;;;;;;;;;;;30.30;33.50;;;;;;5094384;28;20014;-68
2023/03/16 05:52:46;;;;;;;;;;;30.30;33.40;;;;;;5094194;28;19999;-68
2023/03/16 05:55:13;;;;;;;;;;;30.30;33.50;;;;;;5076098;28;19908;-69
2023/03/16 05:57:40;;;;;;;;;;;30.30;33.50;;;;;;5056060;28;19916;-68
2023/03/16 06:00:13;;;;;;;;;;;30.30;33.40;;;;;;5084807;28;20316;-68
2023/03/16 06:02:40;;;;;;;;;;;30.40;33.20;;;;;;5059111;28;20365;-68
2023/03/16 06:05:07;;;;;;;;;;;30.40;33.20;;;;;;5093177;28;19919;-68
2023/03/16 06:07:34;;;;;;;;;;;30.40;33.40;;;;;;5076032;28;20309;-68
2023/03/16 06:10:01;;;;;;;;;;;30.40;33.30;;;;;;5094124;28;19908;-68
2023/03/16 06:12:28;;;;;;;;;;;30.50;33.30;;;;;;5093681;28;20275;-69
2023/03/16 06:14:55;;;;;;;;;;;30.40;33.70;;;;;;5094110;28;20363;-69
2023/03/16 06:17:21;;;;;;;;;;;30.40;34.00;;;;;;5094120;28;19920;-68
2023/03/16 06:19:48;;;;;;;;;;;30.40;34.00;;;;;;5093776;28;19951;-68
2023/03/16 06:22:15;;;;;;;;;;;30.40;33.70;;;;;;5093864;28;19908;-68
2023/03/16 06:24:42;;;;;;;;;;;30.40;33.70;;;;;;5093491;28;19916;-68
2023/03/16 06:27:08;;;;;;;;;;;30.40;33.70;;;;;;5094047;28;19915;-68
2023/03/16 06:29:35;;;;;;;;;;;30.30;33.70;;;;;;5093561;28;19904;-68
2023/03/16 06:32:02;;;;;;;;;;;30.40;33.90;;;;;;5075602;28;19919;-68
2023/03/16 06:34:28;;;;;;;;;;;30.30;32.70;;;;;;5071386;28;19935;-69
2023/03/16 06:36:55;;;;;;;;;;;30.30;32.80;;;;;;5093585;28;19923;-69
2023/03/16 06:39:22;;;;;;;;;;;30.30;32.90;;;;;;5093545;28;19988;-68
2023/03/16 06:41:49;;;;;;;;;;;30.30;33.30;;;;;;5093638;28;19912;-69
2023/03/16 06:44:15;;;;;;;;;;;30.30;33.50;;;;;;5093436;28;19908;-68
2023/03/16 06:46:42;;;;;;;;;;;30.30;33.80;;;;;;5075420;28;19908;-69
2023/03/16 06:49:09;;;;;;;;;;;30.30;33.40;;;;;;5093281;28;19908;-68
2023/03/16 06:51:36;;;;;;;;;;;30.30;33.40;;;;;;5075486;28;19908;-68
2023/03/16 06:54:03;;;;;;;;;;;30.30;33.40;;;;;;5091958;28;19920;-69
2023/03/16 06:56:30;;;;;;;;;;;30.30;33.90;;;;;;5093002;28;19970;-68
2023/03/16 06:58:57;;;;;;;;;;;30.30;33.80;;;;;;5093016;28;19908;-68
2023/03/16 07:01:24;;;;;;;;;;;30.30;33.70;;;;;;5074875;28;19954;-69
2023/03/16 07:03:50;;;;;;;;;;;30.20;33.20;;;;;;5075227;28;19908;-68
2023/03/16 07:06:17;;;;;;;;;;;30.20;32.60;;;;;;5092874;28;19912;-68
2023/03/16 07:08:44;;;;;;;;;;;30.20;32.50;;;;;;5075117;28;19916;-68
2023/03/16 07:11:11;;;;;;;;;;;30.20;32.60;;;;;;5075140;28;19912;-68
2023/03/16 07:13:38;;;;;;;;;;;30.20;32.50;;;;;;5092838;28;19912;-69
2023/03/16 07:16:05;;;;;;;;;;;30.20;32.60;;;;;;5074194;28;20003;-69
2023/03/16 07:18:31;;;;;;;;;;;30.20;32.80;;;;;;5050023;28;19954;-69
2023/03/16 07:20:58;;;;;;;;;;;30.10;33.20;;;;;;5069051;28;19915;-69
2023/03/16 07:23:25;;;;;;;;;;;30.10;33.40;;;;;;5091465;28;19916;-68
2023/03/16 07:25:52;;;;;;;;;;;30.10;33.40;;;;;;5054638;28;20281;-69
2023/03/16 07:28:19;;;;;;;;;;;30.00;33.10;;;;;;5091622;28;20294;-69
2023/03/16 07:30:45;;;;;;;;;;;30.00;33.20;;;;;;5092703;28;20389;-69
2023/03/16 07:33:12;;;;;;;;;;;30.00;33.40;;;;;;5092394;28;19908;-68
2023/03/16 07:35:40;;;;;;;;;;;30.00;33.30;;;;;;5092494;28;20008;-68
2023/03/16 07:38:09;;;;;;;;;;;29.90;33.00;;;;;;5053750;28;19919;-68
2023/03/16 07:40:36;;;;;;;;;;;29.90;32.90;;;;;;5092149;28;20286;-68
2023/03/16 07:43:03;;;;;;;;;;;29.80;33.00;;;;;;5074684;28;20339;-69
2023/03/16 07:45:30;;;;;;;;;;;29.90;33.10;;;;;;5057446;28;20370;-69
2023/03/16 07:47:57;;;;;;;;;;;29.80;33.20;;;;;;5092525;28;19912;-68
2023/03/16 07:50:23;;;;;;;;;;;29.90;33.50;;;;;;5092235;28;19908;-68
2023/03/16 07:52:50;;;;;;;;;;;29.80;33.80;;;;;;5089484;28;19912;-69
2023/03/16 07:55:17;;;;;;;;;;;29.80;34.00;;;;;;5092442;28;19956;-69
2023/03/16 07:57:46;;;;;;;;;;;29.80;34.30;;;;;;5092359;28;19919;-68
2023/03/16 08:00:13;;;;;;;;;;;29.80;34.50;;;;;;5058271;28;19908;-68
2023/03/16 08:02:41;;;;;;;;;;;29.70;34.40;;;;;;5074268;28;20317;-69
2023/03/16 08:05:11;;;;;;;;;;;29.70;34.50;;;;;;5074230;28;19971;-68
2023/03/16 08:07:38;;;;;;;;;;;29.60;34.60;;;;;;5074356;28;19999;-69
2023/03/16 08:10:05;;;;;;;;;;;29.60;34.40;;;;;;5092097;28;19908;-68
2023/03/16 08:12:32;;;;;;;;;;;29.50;34.30;;;;;;5076458;28;19919;-68
2023/03/16 08:14:59;;;;;;;;;;;29.50;34.10;;;;;;5096093;28;19908;-69
2023/03/16 08:17:25;;;;;;;;;;;29.50;34.10;;;;;;5078305;28;19939;-68
2023/03/16 08:19:52;;;;;;;;;;;29.50;34.30;;;;;;5096190;28;19915;-69
2023/03/16 08:22:19;;;;;;;;;;;29.40;34.40;;;;;;5095127;28;19908;-69
2023/03/16 08:24:47;;;;;;;;;;;29.40;34.60;;;;;;5075664;28;19912;-70
2023/03/16 08:27:14;;;;;;;;;;;29.40;34.60;;;;;;5096363;28;19954;-69
2023/03/16 08:29:44;;;;;;;;;;;29.30;34.70;;;;;;5096167;28;20346;-70
2023/03/16 08:32:11;;;;;;;;;;;29.30;34.70;;;;;;5096131;28;19912;-70
2023/03/16 08:34:38;;;;;;;;;;;29.30;34.60;;;;;;5096068;28;19912;-70
2023/03/16 08:37:05;;;;;;;;;;;29.20;34.80;;;;;;5095930;28;19920;-69
2023/03/16 08:39:32;;;;;;;;;;;29.20;34.80;;;;;;5095763;28;20004;-70
2023/03/16 08:42:00;;;;;;;;;;;29.10;35.00;;;;;;5095823;28;20282;-70
2023/03/16 08:44:26;;;;;;;;;;;29.00;35.10;;;;;;5095791;28;20344;-70
2023/03/16 08:46:53;;;;;;;;;;;29.00;35.30;;;;;;5095900;28;19955;-70
2023/03/16 08:49:20;;;;;;;;;;;29.00;35.20;;;;;;5077145;28;20011;-70
2023/03/16 08:51:46;;;;;;;;;;;28.90;35.20;;;;;;5095872;28;20274;-70
2023/03/16 08:54:14;;;;;;;;;;;28.80;35.20;;;;;;5066967;28;20073;-70
2023/03/16 08:56:42;;;;;;;;;;;28.80;35.10;;;;;;5090975;28;20021;-70
2023/03/16 08:59:08;;;;;;;;;;;28.80;35.40;;;;;;5075476;28;19919;-70
2023/03/16 09:01:35;;;;;;;;;;;28.80;35.30;;;;;;5095561;28;19916;-70
2023/03/16 09:04:02;;;;;;;;;;;28.80;35.40;;;;;;5077313;28;19908;-70
2023/03/16 09:06:29;;;;;;;;;;;28.80;35.50;;;;;;5095599;28;19931;-70
2023/03/16 09:08:56;;;;;;;;;;;28.80;35.40;;;;;;5077508;28;19908;-70
2023/03/16 09:11:25;;;;;;;;;;;28.80;35.50;;;;;;5095385;28;20033;-70
2023/03/16 09:13:52;;;;;;;;;;;28.80;35.30;;;;;;5091417;28;19962;-70
2023/03/16 09:16:24;;;;;;;;;;;28.80;35.10;;;;;;5092685;28;19958;-70
2023/03/16 09:18:51;;;;;;;;;;;28.80;34.80;;;;;;5078127;28;19908;-70
2023/03/16 09:21:18;;;;;;;;;;;28.80;34.90;;;;;;5095333;28;19908;-70
2023/03/16 09:23:45;;;;;;;;;;;28.80;34.90;;;;;;5077266;28;20000;-70
2023/03/16 09:26:12;;;;;;;;;;;28.70;34.80;;;;;;5095070;28;19923;-70
2023/03/16 09:28:40;;;;;;;;;;;28.70;34.90;;;;;;5094934;28;20274;-70
2023/03/16 09:31:07;;;;;;;;;;;28.70;35.30;;;;;;5094818;28;19908;-70
2023/03/16 09:33:34;;;;;;;;;;;28.60;35.40;;;;;;5093386;28;20312;-70
2023/03/16 09:36:01;;;;;;;;;;;28.60;35.60;;;;;;5076779;28;19915;-70
2023/03/16 09:38:29;;;;;;;;;;;28.60;36.00;;;;;;5094824;28;19934;-70
2023/03/16 09:41:22;;;;;;;;;;;28.50;36.30;;;;;;5094859;28;19908;-70
2023/03/16 09:43:49;;;;;;;;;;;28.50;36.40;;;;;;5091355;28;19944;-70
2023/03/16 09:46:16;;;;;;;;;;;28.50;36.30;;;;;;5076431;28;19908;-70
2023/03/16 09:48:42;;;;;;;;;;;28.40;36.50;;;;;;5094463;28;19975;-70
2023/03/16 09:51:38;;;;;;;;;;;28.40;36.30;;;;;;5076625;28;20003;-70
2023/03/16 09:54:09;;;;;;;;;;;28.30;36.30;;;;;;5019229;28;20272;-70
2023/03/16 09:56:37;;;;;;;;;;;28.30;37.20;;;;;;5065942;28;19916;-70
2023/03/16 09:59:13;;;;;;;;;;;28.20;37.80;;;;;;5076420;28;19955;-70
2023/03/16 10:01:44;;;;;;;;;;;28.10;37.90;;;;;;5076438;28;19908;-70
2023/03/16 10:04:16;;;;;;;;;;;28.10;38.20;;;;;;5076479;28;19908;-68
2023/03/16 10:06:48;;;;;;;;;;;28.00;38.00;;;;;;5076406;28;20371;-69
2023/03/16 10:09:35;;;;;;;;;;;28.00;37.90;;;;;;5076017;28;19955;-69
2023/03/16 10:12:02;;;;;;;;;;;27.90;37.90;;;;;;5091857;28;20365;-69
2023/03/16 10:14:47;;;;;;;;;;;27.90;38.30;;;;;;5070835;28;20260;-69
2023/03/16 10:17:14;;;;;;;;;;;27.90;38.50;;;;;;5075744;28;19963;-69
2023/03/16 10:19:48;;;;;;;;;;;27.80;38.90;;;;;;5093806;28;19912;-69
2023/03/16 10:22:28;;;;;;;;;;;27.80;38.90;;;;;;5075841;28;19916;-69
2023/03/16 10:25:04;;;;;;;;;;;27.80;39.00;;;;;;5092867;28;19908;-69
2023/03/16 10:27:32;;;;;;;;;;;27.70;38.80;;;;;;5093710;28;20378;-69
2023/03/16 10:30:00;;;;;;;;;;;27.70;38.50;;;;;;5075643;28;19908;-69
2023/03/16 10:32:30;;;;;;;;;;;27.70;38.10;;;;;;5092801;28;19947;-69
2023/03/16 10:35:03;;;;;;;;;;;27.70;37.90;;;;;;5075008;28;20321;-69
2023/03/16 10:37:30;;;;;;;;;;;27.70;37.80;;;;;;5075681;28;19969;-69
2023/03/16 10:39:59;;;;;;;;;;;27.70;37.60;;;;;;5075968;28;20008;-69
2023/03/16 10:42:26;;;;;;;;;;;27.70;37.30;;;;;;5076024;28;20011;-69
2023/03/16 10:44:57;;;;;;;;;;;27.70;37.10;;;;;;5075736;28;20286;-69
2023/03/16 10:47:24;;;;;;;;;;;27.70;36.80;;;;;;5093555;28;20011;-69
2023/03/16 10:49:52;;;;;;;;;;;27.70;36.50;;;;;;5093394;28;19923;-69
2023/03/16 10:52:22;;;;;;;;;;;27.60;36.30;;;;;;5092186;28;19961;-69
2023/03/16 10:54:50;;;;;;;;;;;27.70;36.50;;;;;;5093449;28;19911;-69
2023/03/16 10:57:21;;;;;;;;;;;27.70;36.80;;;;;;5075277;28;20379;-69
2023/03/16 10:59:49;;;;;;;;;;;27.60;36.90;;;;;;5055156;28;19913;-69
2023/03/16 11:02:17;;;;;;;;;;;27.60;37.00;;;;;;5069453;28;20250;-69
2023/03/16 11:04:44;;;;;;;;;;;27.50;37.00;;;;;;5093233;28;19908;-69
2023/03/16 11:07:23;;;;;;;;;;;27.50;36.90;;;;;;5055129;28;20275;-69
2023/03/16 11:09:50;;;;;;;;;;;27.50;36.70;;;;;;5061920;28;19916;-69
2023/03/16 11:12:30;;;;;;;;;;;27.50;36.60;;;;;;5072276;28;19908;-69
2023/03/16 11:15:03;;;;;;;;;;;27.50;36.60;;;;;;5075107;28;20341;-69
2023/03/16 11:17:37;;;;;;;;;;;27.40;36.60;;;;;;5092811;28;19977;-69
2023/03/16 11:20:11;;;;;;;;;;;27.40;36.50;;;;;;5079297;28;19908;-70
2023/03/16 11:22:38;;;;;;;;;;;27.40;36.60;;;;;;5075876;28;19908;-69
2023/03/16 11:25:08;;;;;;;;;;;27.30;36.70;;;;;;5074868;28;19908;-69
2023/03/16 11:27:34;;;;;;;;;;;27.30;36.60;;;;;;5093073;28;20057;-69
2023/03/16 11:30:04;;;;;;;;;;;27.30;36.50;;;;;;5092815;28;20351;-69
2023/03/16 11:32:40;;;;;;;;;;;27.30;36.70;;;;;;5057128;28;20362;-69
2023/03/16 11:35:13;;;;;;;;;;;27.30;36.50;;;;;;5074188;28;19912;-69
2023/03/16 11:37:43;;;;;;;;;;;27.30;36.30;;;;;;5092763;28;19920;-69
2023/03/16 11:40:49;;;;;;;;;;;27.30;36.00;;;;;;5074807;28;19908;-70
2023/03/16 11:43:33;;;;;;;;;;;27.30;35.60;;;;;;5018761;28;19969;-69
2023/03/16 11:46:02;;;;;;;;;;;27.20;35.30;;;;;;5009924;28;19914;-69
2023/03/16 11:48:55;;;;;;;;;;;27.30;35.00;;;;;;5048586;28;20246;-69
2023/03/16 11:51:22;;;;;;;;;;;27.20;34.60;;;;;;5072193;28;19916;-69
2023/03/16 11:53:49;;;;;;;;;;;27.30;34.70;;;;;;5092418;28;19934;-69
2023/03/16 11:56:19;;;;;;;;;;;27.30;34.60;;;;;;5092191;28;19912;-69
2023/03/16 11:58:48;;;;;;;;;;;27.20;34.30;;;;;;5092354;28;20294;-69
2023/03/16 12:01:21;;;;;;;;;;;27.30;34.20;;;;;;5092433;28;20006;-69
2023/03/16 12:03:53;;;;;;;;;;;27.30;34.40;;;;;;5092971;28;19915;-69
2023/03/16 12:06:28;;;;;;;;;;;27.20;34.30;;;;;;5092147;28;19999;-69
2023/03/16 12:09:11;;;;;;;;;;;27.30;34.50;;;;;;5074528;28;20286;-71
2023/03/16 12:11:47;;;;;;;;;;;27.20;34.80;;;;;;5087289;28;19923;-69
2023/03/16 12:14:25;;;;;;;;;;;27.20;35.30;;;;;;5092274;28;19976;-69
2023/03/16 12:16:56;;;;;;;;;;;27.20;35.60;;;;;;5091888;28;19920;-69
2023/03/16 12:19:23;;;;;;;;;;;27.10;35.80;;;;;;5091917;28;19914;-69
2023/03/16 12:21:57;;;;;;;;;;;27.10;36.10;;;;;;5092740;28;19912;-69
2023/03/16 12:24:26;;;;;;;;;;;27.10;36.20;;;;;;5057486;28;19919;-69
2023/03/16 12:26:52;;;;;;;;;;;27.10;36.40;;;;;;5074156;28;19904;-69
2023/03/16 12:29:22;;;;;;;;;;;27.00;36.70;;;;;;5092163;28;19958;-69
2023/03/16 12:31:52;;;;;;;;;;;27.00;36.90;;;;;;5077200;28;19919;-69
2023/03/16 12:34:25;;;;;;;;;;;27.00;37.00;;;;;;5073921;28;19904;-69
2023/03/16 12:37:11;;;;;;;;;;;26.90;37.50;;;;;;5073961;28;20352;-69
2023/03/16 12:40:07;;;;;;;;;;;26.90;37.50;;;;;;5065134;28;19938;-69
2023/03/16 12:42:34;;;;;;;;;;;26.90;37.60;;;;;;5041828;28;19908;-69
2023/03/16 12:45:06;;;;;;;;;;;26.90;37.70;;;;;;5092065;28;19927;-69
2023/03/16 12:47:33;;;;;;;;;;;26.80;37.80;;;;;;5092010;28;19998;-69
2023/03/16 12:50:06;;;;;;;;;;;26.80;37.90;;;;;;5091210;28;19919;-69
2023/03/16 12:52:40;;;;;;;;;;;26.80;38.00;;;;;;5074445;28;19931;-69
2023/03/16 12:55:12;;;;;;;;;;;26.80;38.20;;;;;;5091933;28;19908;-69
2023/03/16 12:57:40;;;;;;;;;;;26.70;37.90;;;;;;5092812;28;19923;-69
2023/03/16 13:00:08;;;;;;;;;;;26.80;38.20;;;;;;5077889;28;20297;-69
2023/03/16 13:02:41;;;;;;;;;;;26.70;38.50;;;;;;5077727;28;19916;-69
2023/03/16 13:05:09;;;;;;;;;;;26.70;38.70;;;;;;5077802;28;19912;-69
2023/03/16 13:07:38;;;;;;;;;;;26.60;39.00;;;;;;5077197;28;19908;-68
2023/03/16 13:10:07;;;;;;;;;;;26.60;39.20;;;;;;5068040;28;19916;-69
2023/03/16 13:12:40;;;;;;;;;;;26.50;39.50;;;;;;5090293;28;20414;-69
2023/03/16 13:15:20;;;;;;;;;;;26.50;39.50;;;;;;5077996;28;20047;-69
2023/03/16 13:17:48;;;;;;;;;;;26.50;39.40;;;;;;5095269;28;19927;-69
2023/03/16 13:20:25;;;;;;;;;;;26.40;39.50;;;;;;5095291;28;19908;-69
2023/03/16 13:23:07;;;;;;;;;;;26.40;39.60;;;;;;5077161;28;19915;-69
2023/03/16 13:25:41;;;;;;;;;;;26.40;39.50;;;;;;5077194;28;19908;-69
2023/03/16 13:28:12;;;;;;;;;;;26.30;39.60;;;;;;5094222;28;19935;-69
2023/03/16 13:30:43;;;;;;;;;;;26.30;39.60;;;;;;5077093;28;19919;-69
2023/03/16 13:33:19;;;;;;;;;;;26.30;39.90;;;;;;5077185;28;19916;-69
2023/03/16 13:35:47;;;;;;;;;;;26.30;39.70;;;;;;5094964;28;19915;-69
2023/03/16 13:38:15;;;;;;;;;;;26.30;39.90;;;;;;5094854;28;19916;-69
2023/03/16 13:40:48;;;;;;;;;;;26.20;39.90;;;;;;5075978;28;19916;-69
2023/03/16 13:43:16;;;;;;;;;;;26.20;40.70;;;;;;5056950;28;19915;-69
2023/03/16 13:45:42;;;;;;;;;;;26.20;40.20;;;;;;5092884;28;19915;-69
2023/03/16 13:48:13;;;;;;;;;;;26.10;40.10;;;;;;5093935;28;19918;-69
2023/03/16 13:50:43;;;;;;;;;;;26.10;40.60;;;;;;5094333;28;19908;-69
2023/03/16 13:53:14;;;;;;;;;;;26.10;40.90;;;;;;5076509;28;20374;-69
2023/03/16 13:55:42;;;;;;;;;;;26.00;40.00;;;;;;5076635;28;19908;-69
2023/03/16 13:58:20;;;;;;;;;;;26.00;41.40;;;;;;5076639;28;19942;-69
2023/03/16 14:00:47;;;;;;;;;;;26.00;39.70;;;;;;5076390;28;20247;-69
2023/03/16 14:03:17;;;;;;;;;;;26.00;40.00;;;;;;5076280;28;19954;-69
2023/03/16 14:05:44;;;;;;;;;;;26.00;39.50;;;;;;5076252;28;19955;-69
2023/03/16 14:08:28;;;;;;;;;;;26.00;39.60;;;;;;5093258;28;19918;-69
2023/03/16 14:10:58;;;;;;;;;;;26.00;39.70;;;;;;5075881;28;19932;-69
2023/03/16 14:13:35;;;;;;;;;;;25.90;40.40;;;;;;5076501;28;19937;-69
2023/03/16 14:16:12;;;;;;;;;;;25.90;40.50;;;;;;5076353;28;19924;-69
2023/03/16 14:18:40;;;;;;;;;;;25.80;40.50;;;;;;5076164;28;20414;-69
2023/03/16 14:21:08;;;;;;;;;;;25.80;40.90;;;;;;5076282;28;20312;-69
2023/03/16 14:23:36;;;;;;;;;;;25.80;41.50;;;;;;5093894;28;20282;-69
2023/03/16 14:26:03;;;;;;;;;;;25.70;41.90;;;;;;5093775;28;19999;-69
2023/03/16 14:28:31;;;;;;;;;;;25.70;42.30;;;;;;5062087;28;19951;-69